createdAt,value
2023-11-12T00:11:59.020Z,10.20
2023-11-12T00:14:27.439Z,10.50
2023-11-12T00:16:59.080Z,10.80
2023-11-12T00:19:33.299Z,11.20
2023-11-12T00:22:03.208Z,10.20
2023-11-12T00:24:31.497Z,10.50
2023-11-12T00:26:59.831Z,11.00
2023-11-12T00:29:30.996Z,11.10
2023-11-12T00:32:06.218Z,11.10
2023-11-12T00:34:35.949Z,11.30
2023-11-12T00:37:08.856Z,10.70
2023-11-12T00:44:43.794Z,8.20
2023-11-12T00:47:12.094Z,8.70
2023-11-12T00:49:40.413Z,9.10
2023-11-12T00:52:10.134Z,8.30
2023-11-12T00:54:38.525Z,8.70
2023-11-12T00:57:07.519Z,9.10
2023-11-12T00:59:36.892Z,9.00
2023-11-12T01:02:05.739Z,7.90
2023-11-12T01:04:34.103Z,7.60
2023-11-12T01:07:02.420Z,8.10
2023-11-12T01:09:32.074Z,8.20
2023-11-12T01:12:03.105Z,7.80
2023-11-12T01:14:31.517Z,7.60
2023-11-12T01:17:06.597Z,7.70
2023-11-12T01:19:35.090Z,9.20
2023-11-12T01:22:04.662Z,8.80
2023-11-12T01:24:38.953Z,8.30
2023-11-12T01:27:07.310Z,8.10
2023-11-12T01:29:38.411Z,8.40
2023-11-12T01:32:07.978Z,8.60
2023-11-12T01:34:42.341Z,8.60
2023-11-12T01:37:19.622Z,8.50
2023-11-12T01:39:52.088Z,8.20
2023-11-12T01:42:20.455Z,8.30
2023-11-12T01:44:54.947Z,8.60
2023-11-12T01:47:23.640Z,8.10
2023-11-12T01:49:55.026Z,7.90
2023-11-12T01:52:24.721Z,7.30
2023-11-12T01:55:00.878Z,8.10
2023-11-12T01:57:29.719Z,7.80
2023-11-12T02:00:00.830Z,8.40
2023-11-12T02:02:36.293Z,9.10
2023-11-12T02:05:07.470Z,8.60
2023-11-12T02:07:43.322Z,7.80
2023-11-12T02:10:16.240Z,7.70
2023-11-12T02:12:48.972Z,8.50
2023-11-12T02:15:20.203Z,8.60
2023-11-12T02:17:49.012Z,8.30
2023-11-12T02:20:20.648Z,8.50
2023-11-12T02:22:49.311Z,8.20
2023-11-12T02:25:20.869Z,8.30
2023-11-12T02:27:49.562Z,8.40
2023-11-12T02:30:21.092Z,8.10
2023-11-12T02:33:08.138Z,9.20
2023-11-12T02:35:44.218Z,10.20
2023-11-12T02:38:12.956Z,10.10
2023-11-12T02:40:47.303Z,10.70
2023-11-12T02:43:16.177Z,9.80
2023-11-12T02:45:50.656Z,8.80
2023-11-12T02:50:48.467Z,7.70
2023-11-12T02:53:19.833Z,8.10
2023-11-12T02:55:49.488Z,7.80
2023-11-12T02:58:20.744Z,8.30
2023-11-12T03:00:52.781Z,8.50
2023-11-12T03:03:21.411Z,8.50
2023-11-12T03:06:04.472Z,8.80
2023-11-12T03:08:38.673Z,8.30
2023-11-12T03:11:09.047Z,8.40
2023-11-12T03:13:40.292Z,9.10
2023-11-12T03:16:11.111Z,9.60
2023-11-12T03:18:50.150Z,9.20
2023-11-12T03:21:19.483Z,9.20
2023-11-12T03:23:57.475Z,9.30
2023-11-12T03:26:27.162Z,8.70
2023-11-12T03:28:55.455Z,8.80
2023-11-12T03:31:23.798Z,8.60
2023-11-12T03:33:54.623Z,7.80
2023-11-12T03:36:29.191Z,7.70
2023-11-12T03:39:00.247Z,8.10
2023-11-12T03:41:32.357Z,7.60
2023-11-12T03:44:09.716Z,8.40
2023-11-12T03:46:40.969Z,7.80
2023-11-12T03:49:09.318Z,7.60
2023-11-12T03:51:44.245Z,7.10
2023-11-12T03:54:13.590Z,7.90
2023-11-12T03:56:46.342Z,7.80
2023-11-12T03:59:14.679Z,8.00
2023-11-12T04:01:49.126Z,8.10
2023-11-12T04:04:17.576Z,9.10
2023-11-12T04:06:49.317Z,8.70
2023-11-12T04:09:17.661Z,8.30
2023-11-12T04:11:53.027Z,9.30
2023-11-12T04:14:21.594Z,8.80
2023-11-12T04:16:52.739Z,9.60
2023-11-12T04:19:21.059Z,10.00
2023-11-12T04:21:49.679Z,9.30
2023-11-12T04:24:21.058Z,8.70
2023-11-12T04:27:01.620Z,7.40
2023-11-12T04:29:32.964Z,7.10
2023-11-12T04:32:04.453Z,7.40
2023-11-12T04:34:39.087Z,7.70
2023-11-12T04:37:10.778Z,7.70
2023-11-12T04:39:39.101Z,7.90
2023-11-12T04:42:09.284Z,8.50
2023-11-12T04:44:40.359Z,7.80
2023-11-12T04:47:09.324Z,8.20
2023-11-12T04:49:39.261Z,8.70
2023-11-12T04:52:11.022Z,9.20
2023-11-12T04:54:39.339Z,9.40
2023-11-12T04:57:09.901Z,9.30
2023-11-12T04:59:42.116Z,9.10
2023-11-12T05:02:16.278Z,9.50
2023-11-12T05:04:58.056Z,9.20
2023-11-12T05:07:32.240Z,8.40
2023-11-12T05:10:00.510Z,7.60
2023-11-12T05:12:35.845Z,8.00
2023-11-12T05:15:07.587Z,8.40
2023-11-12T05:17:37.262Z,8.60
2023-11-12T05:20:10.271Z,9.30
2023-11-12T05:22:44.471Z,9.60
2023-11-12T05:25:21.967Z,9.10
2023-11-12T05:27:53.849Z,8.90
2023-11-12T05:30:25.343Z,9.20
2023-11-12T05:32:54.865Z,9.70
2023-11-12T05:35:23.866Z,10.20
2023-11-12T05:37:55.618Z,9.30
2023-11-12T05:40:24.068Z,9.10
2023-11-12T05:42:53.697Z,9.80
2023-11-12T05:45:22.032Z,9.30
2023-11-12T05:47:53.129Z,9.80
2023-11-12T05:50:21.475Z,9.40
2023-11-12T05:52:52.661Z,9.80
2023-11-12T05:55:25.941Z,10.30
2023-11-12T05:58:05.012Z,10.30
2023-11-12T06:00:33.732Z,10.30
2023-11-12T06:03:02.156Z,10.20
2023-11-12T06:05:33.400Z,9.10
2023-11-12T06:08:03.625Z,9.30
2023-11-12T06:10:38.620Z,9.70
2023-11-12T06:13:16.805Z,8.90
2023-11-12T06:15:48.459Z,8.00
2023-11-12T06:18:19.808Z,7.80
2023-11-12T06:20:52.326Z,7.90
2023-11-12T06:23:20.702Z,7.80
2023-11-12T06:25:49.036Z,7.50
2023-11-12T06:28:23.797Z,7.00
2023-11-12T06:30:58.786Z,7.50
2023-11-12T06:33:33.215Z,8.50
2023-11-12T06:36:05.924Z,8.70
2023-11-12T06:38:34.207Z,8.60
2023-11-12T06:41:02.493Z,8.50
2023-11-12T06:43:41.212Z,7.70
2023-11-12T06:46:09.733Z,8.50
2023-11-12T06:48:38.048Z,7.80
2023-11-12T06:53:37.876Z,9.80
2023-11-12T06:56:11.665Z,8.80
2023-11-12T06:58:42.537Z,7.70
2023-11-12T07:01:21.725Z,7.90
2023-11-12T07:03:52.591Z,8.20
2023-11-12T07:06:21.001Z,9.30
2023-11-12T07:08:52.096Z,9.70
2023-11-12T07:11:20.482Z,10.00
2023-11-12T07:13:50.138Z,10.00
2023-11-12T07:16:19.295Z,10.60
2023-11-12T07:19:09.045Z,10.10
2023-11-12T07:21:37.847Z,10.00
2023-11-12T07:24:07.633Z,9.80
2023-11-12T07:26:38.918Z,9.90
2023-11-12T07:29:11.421Z,10.40
2023-11-12T07:31:39.734Z,10.50
2023-11-12T07:34:08.637Z,10.80
2023-11-12T07:36:38.547Z,10.60
2023-11-12T07:39:09.651Z,10.70
2023-11-12T07:41:42.720Z,10.20
2023-11-12T07:44:16.630Z,9.50
2023-11-12T07:46:54.876Z,9.80
2023-11-12T07:49:26.078Z,8.80
2023-11-12T07:51:57.472Z,9.40
2023-11-12T07:54:27.406Z,9.10
2023-11-12T07:57:05.174Z,8.90
2023-11-12T07:59:35.211Z,8.50
2023-11-12T08:02:06.088Z,8.60
2023-11-12T08:04:34.492Z,8.20
2023-11-12T08:07:10.938Z,7.60
2023-11-12T08:09:45.542Z,8.00
2023-11-12T08:12:17.455Z,7.60
2023-11-12T08:14:52.747Z,7.70
2023-11-12T08:17:21.039Z,8.30
2023-11-12T08:19:55.497Z,8.10
2023-11-12T08:22:23.812Z,8.20
2023-11-12T08:24:55.073Z,7.40
2023-11-12T08:27:26.494Z,7.50
2023-11-12T08:30:22.280Z,8.40
2023-11-12T08:32:54.009Z,8.10
2023-11-12T08:35:22.576Z,8.50
2023-11-12T08:37:56.263Z,8.60
2023-11-12T08:40:25.600Z,8.30
2023-11-12T08:43:03.126Z,8.30
2023-11-12T08:45:35.062Z,7.40
2023-11-12T08:48:06.768Z,8.00
2023-11-12T08:50:38.133Z,8.20
2023-11-12T08:53:06.418Z,7.90
2023-11-12T08:55:34.710Z,7.80
2023-11-12T08:58:05.278Z,8.00
2023-11-12T09:00:36.075Z,7.80
2023-11-12T09:03:17.398Z,7.90
2023-11-12T09:05:48.811Z,7.80
2023-11-12T09:08:21.539Z,8.20
2023-11-12T09:11:05.549Z,7.60
2023-11-12T09:13:36.625Z,7.90
2023-11-12T09:16:08.265Z,8.30
2023-11-12T09:18:39.803Z,8.90
2023-11-12T09:21:08.487Z,8.60
2023-11-12T09:23:40.416Z,8.40
2023-11-12T09:26:21.395Z,8.40
2023-11-12T09:28:49.779Z,8.40
2023-11-12T09:31:20.450Z,9.10
2023-11-12T09:33:51.630Z,9.50
2023-11-12T09:36:21.259Z,9.50
2023-11-12T09:38:52.595Z,10.10
2023-11-12T09:41:24.512Z,9.80
2023-11-12T09:43:54.452Z,9.60
2023-11-12T09:46:25.386Z,10.40
2023-11-12T09:49:09.865Z,9.80
2023-11-12T09:51:41.764Z,10.20
2023-11-12T09:54:11.678Z,10.30
2023-11-12T09:56:39.968Z,10.00
2023-11-12T09:59:11.366Z,10.10
2023-11-12T10:01:41.121Z,10.30
2023-11-12T10:04:17.084Z,10.30
2023-11-12T10:06:47.924Z,10.60
2023-11-12T10:09:16.858Z,9.90
2023-11-12T10:11:48.091Z,10.30
2023-11-12T10:14:24.849Z,10.30
2023-11-12T10:17:11.754Z,10.70
2023-11-12T10:19:58.005Z,10.50
2023-11-12T10:22:44.222Z,10.10
2023-11-12T10:25:12.621Z,10.00
2023-11-12T10:27:54.168Z,10.50
2023-11-12T10:30:26.036Z,10.30
2023-11-12T10:33:21.033Z,10.40
2023-11-12T10:35:49.746Z,10.10
2023-11-12T10:38:19.571Z,10.30
2023-11-12T10:41:03.653Z,10.50
2023-11-12T10:43:37.334Z,10.50
2023-11-12T10:46:08.474Z,10.60
2023-11-12T10:48:48.757Z,10.90
2023-11-12T10:51:17.981Z,10.70
2023-11-12T10:53:49.826Z,10.10
2023-11-12T10:56:22.874Z,10.00
2023-11-12T10:58:55.222Z,9.90
2023-11-12T11:01:25.224Z,10.10
2023-11-12T11:03:57.752Z,9.90
2023-11-12T11:06:30.548Z,10.50
2023-11-12T11:09:06.364Z,10.40
2023-11-12T11:11:45.026Z,10.30
2023-11-12T11:14:23.133Z,10.80
2023-11-12T11:16:54.324Z,10.60
2023-11-12T11:19:54.994Z,10.60
2023-11-12T11:22:25.830Z,10.00
2023-11-12T11:25:01.181Z,10.30
2023-11-12T11:27:32.758Z,10.80
2023-11-12T11:30:13.528Z,11.10
2023-11-12T11:33:06.206Z,10.90
2023-11-12T11:35:40.153Z,10.20
2023-11-12T11:38:14.916Z,10.70
2023-11-12T11:41:00.538Z,10.90
2023-11-12T11:43:33.151Z,10.60
2023-11-12T11:46:25.544Z,10.70
2023-11-12T11:49:19.691Z,10.80
2023-11-12T11:51:50.415Z,10.60
2023-11-12T11:54:26.605Z,10.60
2023-11-12T11:56:58.730Z,11.00
2023-11-12T11:59:27.486Z,10.70
2023-11-12T12:02:03.673Z,11.20
2023-11-12T12:04:35.295Z,10.60
2023-11-12T12:07:22.348Z,10.40
2023-11-12T12:10:00.165Z,10.50
2023-11-12T12:12:38.639Z,10.00
2023-11-12T12:15:09.713Z,10.30
2023-11-12T12:17:41.163Z,10.20
2023-11-12T12:20:11.373Z,10.60
2023-11-12T12:22:42.513Z,10.00
2023-11-12T12:25:15.118Z,10.40
2023-11-12T12:27:54.509Z,10.40
2023-11-12T12:30:23.095Z,10.40
2023-11-12T12:32:52.426Z,10.50
2023-11-12T12:35:24.058Z,10.60
2023-11-12T12:38:08.469Z,10.90
2023-11-12T12:40:49.671Z,10.30
2023-11-12T12:43:18.374Z,10.20
2023-11-12T12:46:06.295Z,10.10
2023-11-12T12:48:36.091Z,10.00
2023-11-12T12:51:18.099Z,9.80
2023-11-12T12:53:52.931Z,9.90
2023-11-12T12:56:22.820Z,10.30
2023-11-12T12:58:57.514Z,10.40
2023-11-12T13:01:25.990Z,10.70
2023-11-12T13:03:57.489Z,10.60
2023-11-12T13:06:27.350Z,10.40
2023-11-12T13:08:58.414Z,10.30
2023-11-12T13:11:28.424Z,10.30
2023-11-12T13:14:02.791Z,10.30
2023-11-12T13:16:37.216Z,10.00
2023-11-12T13:19:06.279Z,10.40
2023-11-12T13:21:47.784Z,10.70
2023-11-12T13:24:30.134Z,10.50
2023-11-12T13:27:04.444Z,10.50
2023-11-12T13:29:39.641Z,10.40
2023-11-12T13:32:08.819Z,10.10
2023-11-12T13:34:47.056Z,10.00
2023-11-12T13:37:16.823Z,10.20
2023-11-12T13:39:54.326Z,10.40
2023-11-12T13:42:22.701Z,10.50
2023-11-12T13:44:54.956Z,10.20
2023-11-12T13:47:23.958Z,10.40
2023-11-12T13:49:55.753Z,10.40
2023-11-12T13:52:24.221Z,10.80
2023-11-12T13:55:01.447Z,10.80
2023-11-12T13:57:29.978Z,10.40
2023-11-12T13:59:58.779Z,10.60
2023-11-12T14:02:33.024Z,10.10
2023-11-12T14:05:07.216Z,10.30
2023-11-12T14:07:35.518Z,10.70
2023-11-12T14:10:11.322Z,10.40
2023-11-12T14:12:40.277Z,10.00
2023-11-12T14:15:19.021Z,10.00
2023-11-12T14:20:23.549Z,10.90
2023-11-12T14:22:56.346Z,11.80
2023-11-12T14:25:26.855Z,11.10
2023-11-12T14:27:56.029Z,11.40
2023-11-12T14:30:24.928Z,10.90
2023-11-12T14:33:07.321Z,10.80
2023-11-12T14:35:41.629Z,11.10
2023-11-12T14:38:20.285Z,11.00
2023-11-12T14:40:55.033Z,10.80
2023-11-12T14:43:23.329Z,10.30
2023-11-12T14:45:51.849Z,10.20
2023-11-12T14:48:29.838Z,10.50
2023-11-12T14:51:01.561Z,10.80
2023-11-12T14:53:32.985Z,11.10
2023-11-12T14:56:04.401Z,11.30
2023-11-12T14:58:38.733Z,11.10
2023-11-12T15:01:13.918Z,11.10
2023-11-12T15:03:45.333Z,10.80
2023-11-12T15:06:13.714Z,11.00
2023-11-12T15:08:42.103Z,11.00
2023-11-12T15:11:18.263Z,11.50
2023-11-12T15:14:00.986Z,11.80
2023-11-12T15:16:43.042Z,11.80
2023-11-12T15:19:14.435Z,11.50
2023-11-12T15:21:51.642Z,11.90
2023-11-12T15:24:28.006Z,11.80
2023-11-12T15:26:58.423Z,11.60
2023-11-12T15:29:32.731Z,11.70
2023-11-12T15:32:09.275Z,11.40
2023-11-12T15:34:38.655Z,11.40
2023-11-12T15:37:13.119Z,11.30
2023-11-12T15:39:48.454Z,11.40
2023-11-12T15:42:18.427Z,11.70
2023-11-12T15:44:49.865Z,11.90
2023-11-12T15:47:20.808Z,12.10
2023-11-12T15:50:02.845Z,12.10
2023-11-12T15:52:31.185Z,12.20
2023-11-12T15:55:00.532Z,12.20
2023-11-12T15:57:37.860Z,12.20
2023-11-12T16:00:09.309Z,12.20
2023-11-12T16:02:39.344Z,12.10
2023-11-12T16:05:09.202Z,12.20
2023-11-12T16:07:51.621Z,12.20
2023-11-12T16:10:20.453Z,12.20
2023-11-12T16:12:53.214Z,12.20
2023-11-12T16:15:21.728Z,12.20
2023-11-12T16:17:56.062Z,12.20
2023-11-12T16:20:33.995Z,12.20
2023-11-12T16:23:07.592Z,12.20
2023-11-12T16:25:35.859Z,12.10
2023-11-12T16:28:20.815Z,12.10
2023-11-12T16:30:52.198Z,12.20
2023-11-12T16:33:20.949Z,12.20
2023-11-12T16:35:49.248Z,12.20
2023-11-12T16:38:23.659Z,12.20
2023-11-12T16:40:51.945Z,12.20
2023-11-12T16:43:21.707Z,12.20
2023-11-12T16:45:53.138Z,12.20
2023-11-12T16:48:25.930Z,12.20
2023-11-12T16:51:00.444Z,12.30
2023-11-12T16:53:38.061Z,12.10
2023-11-12T16:56:07.464Z,12.10
2023-11-12T16:58:37.409Z,12.10
2023-11-12T17:01:06.216Z,12.10
2023-11-12T17:03:37.503Z,12.10
2023-11-12T17:06:09.216Z,12.10
2023-11-12T17:08:37.604Z,12.10
2023-11-12T17:11:06.846Z,12.10
2023-11-12T17:13:38.700Z,12.20
2023-11-12T17:16:08.176Z,12.20
2023-11-12T17:18:36.800Z,12.20
2023-11-12T17:21:06.843Z,12.20
2023-11-12T17:23:53.529Z,12.20
2023-11-12T17:26:22.946Z,12.20
2023-11-12T17:28:52.607Z,12.30
2023-11-12T17:31:20.877Z,12.30
2023-11-12T17:33:52.225Z,12.30
2023-11-12T17:36:21.013Z,11.70
2023-11-12T17:38:50.398Z,11.70
2023-11-12T17:41:18.825Z,11.30
2023-11-12T17:43:50.122Z,11.40
2023-11-12T17:46:20.179Z,11.70
2023-11-12T17:48:57.527Z,11.20
2023-11-12T17:51:26.572Z,11.40
2023-11-12T17:53:57.669Z,11.40
2023-11-12T17:56:25.931Z,11.50
2023-11-12T17:58:57.050Z,11.80
2023-11-12T18:01:26.775Z,10.90
2023-11-12T18:04:00.117Z,11.30
2023-11-12T18:06:29.711Z,10.50
2023-11-12T18:09:00.836Z,10.60
2023-11-12T18:11:35.420Z,10.50
2023-11-12T18:14:10.043Z,10.90
2023-11-12T18:16:39.782Z,11.30
2023-11-12T18:19:13.513Z,11.50
2023-11-12T18:21:44.680Z,11.40
2023-11-12T18:24:18.637Z,11.50
2023-11-12T18:26:51.426Z,10.40
2023-11-12T18:29:19.811Z,10.60
2023-11-12T18:31:57.334Z,11.10
2023-11-12T18:34:27.026Z,10.70
2023-11-12T18:36:58.570Z,10.60
2023-11-12T18:39:27.483Z,10.80
2023-11-12T18:42:05.521Z,11.20
2023-11-12T18:44:33.810Z,11.70
2023-11-12T18:47:04.557Z,11.50
2023-11-12T18:49:37.154Z,11.10
2023-11-12T18:52:15.392Z,11.10
2023-11-12T18:54:46.706Z,11.60
2023-11-12T18:57:15.003Z,11.80
2023-11-12T18:59:46.336Z,10.70
2023-11-12T19:02:15.985Z,11.20
2023-11-12T19:07:27.889Z,11.70
2023-11-12T19:10:11.108Z,11.80
2023-11-12T19:12:40.900Z,10.50
2023-11-12T19:15:10.497Z,10.40
2023-11-12T19:17:44.251Z,10.70
2023-11-12T19:20:19.253Z,11.10
2023-11-12T19:22:48.013Z,11.40
2023-11-12T19:25:16.850Z,11.60
2023-11-12T19:27:46.045Z,11.50
2023-11-12T19:30:20.563Z,11.80
2023-11-12T19:33:08.324Z,11.30
2023-11-12T19:35:39.878Z,11.80
2023-11-12T19:38:09.959Z,10.90
2023-11-12T19:40:40.654Z,10.80
2023-11-12T19:43:09.754Z,10.40
2023-11-12T19:45:41.588Z,10.40
2023-11-12T19:48:11.406Z,10.80
2023-11-12T19:50:40.530Z,10.40
2023-11-12T19:53:08.826Z,10.00
2023-11-12T19:55:45.900Z,9.80
2023-11-12T19:58:16.411Z,10.50
2023-11-12T20:00:44.752Z,10.40
2023-11-12T20:03:14.652Z,10.80
2023-11-12T20:05:43.755Z,10.60
2023-11-12T20:08:12.760Z,10.50
2023-11-12T20:10:42.541Z,10.00
2023-11-12T20:13:15.107Z,9.70
2023-11-12T20:15:47.988Z,10.40
2023-11-12T20:18:20.566Z,10.90
2023-11-12T20:21:10.620Z,11.30
2023-11-12T20:23:39.223Z,11.30
2023-11-12T20:26:08.571Z,11.20
2023-11-12T20:28:40.118Z,11.20
2023-11-12T20:31:08.493Z,11.20
2023-11-12T20:33:38.702Z,11.20
2023-11-12T20:36:13.568Z,10.80
2023-11-12T20:38:46.290Z,10.80
2023-11-12T20:41:14.652Z,11.20
2023-11-12T20:43:43.759Z,10.50
2023-11-12T20:46:19.851Z,10.30
2023-11-12T20:49:05.100Z,9.80
2023-11-12T20:51:36.317Z,9.60
2023-11-12T20:54:04.735Z,10.10
2023-11-12T20:56:37.821Z,10.80
2023-11-12T20:59:10.524Z,10.10
2023-11-12T21:01:39.774Z,10.60
2023-11-12T21:04:12.912Z,11.10
2023-11-12T21:06:49.603Z,10.70
2023-11-12T21:09:18.266Z,11.10
2023-11-12T21:11:54.398Z,10.70
2023-11-12T21:14:22.698Z,10.80
2023-11-12T21:16:51.215Z,10.70
2023-11-12T21:19:22.977Z,10.90
2023-11-12T21:21:51.805Z,11.20
2023-11-12T21:24:27.104Z,11.30
2023-11-12T21:26:55.442Z,11.40
2023-11-12T21:29:24.857Z,10.80
2023-11-12T21:31:56.005Z,11.00
2023-11-12T21:34:27.222Z,10.40
2023-11-12T21:37:01.345Z,10.40
2023-11-12T21:39:43.141Z,10.80
2023-11-12T21:42:11.595Z,10.70
2023-11-12T21:44:49.622Z,10.30
2023-11-12T21:47:19.807Z,10.60
2023-11-12T21:49:57.826Z,10.80
2023-11-12T21:52:26.983Z,9.50
2023-11-12T21:55:09.704Z,8.70
2023-11-12T21:57:38.240Z,9.30
2023-11-12T22:00:12.985Z,9.60
2023-11-12T22:02:44.665Z,9.30
2023-11-12T22:05:20.056Z,10.10
2023-11-12T22:07:48.537Z,10.10
2023-11-12T22:10:19.213Z,9.50
2023-11-12T22:12:52.150Z,9.30
2023-11-12T22:15:20.819Z,9.70
2023-11-12T22:17:55.075Z,10.10
2023-11-12T22:20:38.989Z,10.70
2023-11-12T22:23:11.997Z,10.10
2023-11-12T22:25:41.789Z,10.20
2023-11-12T22:28:10.194Z,10.50
2023-11-12T22:30:40.532Z,10.90
2023-11-12T22:33:21.183Z,11.10
2023-11-12T22:35:50.842Z,10.80
2023-11-12T22:38:19.141Z,11.10
2023-11-12T22:40:47.413Z,11.20
2023-11-12T22:43:15.745Z,11.10
2023-11-12T22:45:44.234Z,11.10
2023-11-12T22:48:24.444Z,11.20
2023-11-12T22:50:57.885Z,11.30
2023-11-12T22:53:26.840Z,11.30
2023-11-12T22:56:07.985Z,11.30
2023-11-12T22:58:36.435Z,11.30
2023-11-12T23:01:16.905Z,11.30
2023-11-12T23:03:51.123Z,11.30
2023-11-12T23:06:21.942Z,11.30
2023-11-12T23:08:54.771Z,11.30
2023-11-12T23:11:29.923Z,11.30
2023-11-12T23:14:01.607Z,11.20
2023-11-12T23:16:35.754Z,11.30
2023-11-12T23:19:07.192Z,11.30
2023-11-12T23:21:37.149Z,11.30
2023-11-12T23:24:06.387Z,11.30
2023-11-12T23:26:35.068Z,11.20
2023-11-12T23:29:19.125Z,11.20
2023-11-12T23:31:54.947Z,11.20
2023-11-12T23:34:44.050Z,11.20
2023-11-12T23:37:17.185Z,11.30
2023-11-12T23:39:45.538Z,10.90
2023-11-12T23:42:14.433Z,10.90
2023-11-12T23:44:49.030Z,10.90
2023-11-12T23:47:21.296Z,11.00
2023-11-12T23:49:50.508Z,11.00
2023-11-12T23:52:20.259Z,10.90
2023-11-12T23:54:51.716Z,10.80
2023-11-12T23:57:20.210Z,10.90
2023-11-12T23:59:48.925Z,10.40
